createdAt,value
2019-01-16T00:01:21.235Z,19.20
2019-01-16T00:04:06.751Z,16.40
2019-01-16T00:06:54.145Z,10.97
2019-01-16T00:09:41.945Z,15.20
2019-01-16T00:12:48.950Z,17.07
2019-01-16T00:15:33.057Z,9.93
2019-01-16T00:18:33.701Z,15.90
2019-01-16T00:21:24.495Z,17.30
2019-01-16T00:24:28.306Z,16.47
2019-01-16T00:27:22.269Z,14.67
2019-01-16T00:30:00.371Z,14.53
2019-01-16T00:32:49.082Z,17.50
2019-01-16T00:35:37.893Z,16.03
2019-01-16T00:38:32.423Z,18.70
2019-01-16T00:41:21.084Z,15.23
2019-01-16T00:44:15.533Z,12.70
2019-01-16T00:47:03.048Z,18.23
2019-01-16T00:49:47.128Z,14.87
2019-01-16T00:52:35.851Z,19.03
2019-01-16T00:55:29.867Z,23.57
2019-01-16T00:58:17.655Z,18.87
2019-01-16T01:01:05.196Z,22.67
2019-01-16T01:04:00.141Z,21.10
2019-01-16T01:06:55.042Z,12.47
2019-01-16T01:09:46.742Z,20.73
2019-01-16T01:12:34.217Z,15.93
2019-01-16T01:15:29.305Z,16.80
2019-01-16T01:18:40.457Z,18.23
2019-01-16T01:21:34.039Z,17.47
2019-01-16T01:24:23.461Z,27.53
2019-01-16T01:27:12.115Z,21.57
2019-01-16T01:30:00.881Z,27.43
2019-01-16T01:32:48.508Z,22.53
2019-01-16T01:35:36.510Z,22.00
2019-01-16T01:38:25.200Z,28.27
2019-01-16T01:41:15.571Z,14.93
2019-01-16T01:43:55.444Z,15.93
2019-01-16T01:46:37.301Z,20.83
2019-01-16T01:49:19.782Z,18.13
2019-01-16T01:52:14.547Z,18.80
2019-01-16T01:55:09.103Z,18.73
2019-01-16T01:57:58.837Z,16.03
2019-01-16T02:00:49.507Z,22.27
2019-01-16T02:03:37.324Z,15.90
2019-01-16T02:06:19.977Z,16.77
2019-01-16T02:09:21.124Z,11.77
2019-01-16T02:12:08.467Z,21.03
2019-01-16T02:15:03.918Z,14.70
2019-01-16T02:17:51.227Z,24.00
2019-01-16T02:20:38.552Z,13.13
2019-01-16T02:23:36.215Z,22.40
2019-01-16T02:26:24.254Z,16.57
2019-01-16T02:29:11.597Z,20.63
2019-01-16T02:32:03.036Z,14.93
2019-01-16T02:34:50.548Z,13.53
2019-01-16T02:37:48.396Z,18.50
2019-01-16T02:40:35.761Z,9.30
2019-01-16T02:43:27.273Z,16.17
2019-01-16T02:46:10.474Z,11.63
2019-01-16T02:49:17.313Z,11.87
2019-01-16T02:51:59.999Z,20.17
2019-01-16T02:55:02.034Z,19.47
2019-01-16T02:57:50.846Z,15.20
2019-01-16T03:00:39.479Z,28.87
2019-01-16T03:03:26.723Z,23.30
2019-01-16T03:06:15.908Z,21.53
2019-01-16T03:08:55.240Z,21.60
2019-01-16T03:11:47.162Z,18.37
2019-01-16T03:14:34.640Z,26.03
2019-01-16T03:17:29.298Z,14.60
2019-01-16T03:20:18.039Z,16.70
2019-01-16T03:23:20.356Z,11.97
2019-01-16T03:26:20.923Z,11.47
2019-01-16T03:29:03.330Z,7.33
2019-01-16T03:31:44.123Z,9.07
2019-01-16T03:34:32.900Z,7.43
2019-01-16T03:37:20.384Z,8.70
2019-01-16T03:40:07.365Z,11.27
2019-01-16T03:43:14.420Z,11.73
2019-01-16T03:46:10.395Z,14.70
2019-01-16T03:48:58.014Z,7.33
2019-01-16T03:51:58.926Z,19.70
2019-01-16T03:54:43.727Z,14.53
2019-01-16T03:57:32.615Z,19.60
2019-01-16T04:00:20.176Z,18.83
2019-01-16T04:03:07.735Z,23.17
2019-01-16T04:06:02.184Z,18.67
2019-01-16T04:08:53.857Z,15.50
2019-01-16T04:11:42.829Z,14.83
2019-01-16T04:14:21.349Z,17.87
2019-01-16T04:17:09.126Z,15.73
2019-01-16T04:20:07.195Z,18.00
2019-01-16T04:22:43.704Z,22.77
2019-01-16T04:25:50.851Z,23.60
2019-01-16T04:28:42.523Z,22.30
2019-01-16T04:31:29.900Z,16.67
2019-01-16T04:34:36.889Z,17.03
2019-01-16T04:37:41.067Z,10.83
2019-01-16T04:40:28.533Z,11.57
2019-01-16T04:43:27.243Z,19.30
2019-01-16T04:46:28.705Z,15.97
2019-01-16T04:49:17.537Z,16.37
2019-01-16T04:52:00.382Z,13.00
2019-01-16T04:54:52.238Z,17.00
2019-01-16T04:57:47.209Z,13.57
2019-01-16T05:00:45.409Z,14.47
2019-01-16T05:03:36.017Z,17.70
2019-01-16T05:06:25.202Z,16.70
2019-01-16T05:09:19.828Z,15.30
2019-01-16T05:12:09.905Z,18.70
2019-01-16T05:15:04.439Z,17.37
2019-01-16T05:17:51.963Z,13.43
2019-01-16T05:20:39.091Z,18.40
2019-01-16T05:23:18.553Z,25.50
2019-01-16T05:26:07.246Z,13.33
2019-01-16T05:29:08.337Z,24.70
2019-01-16T05:31:47.733Z,17.73
2019-01-16T05:34:31.866Z,20.37
2019-01-16T05:37:29.458Z,18.93
2019-01-16T05:40:15.967Z,22.80
2019-01-16T05:43:11.671Z,14.07
2019-01-16T05:45:57.975Z,23.33
2019-01-16T05:48:49.922Z,21.90
2019-01-16T05:51:45.946Z,17.93
2019-01-16T05:54:33.418Z,16.87
2019-01-16T05:57:25.286Z,15.07
2019-01-16T06:00:11.947Z,18.30
2019-01-16T06:03:16.022Z,17.53
2019-01-16T06:06:04.825Z,19.67
2019-01-16T06:08:52.148Z,25.30
2019-01-16T06:11:40.847Z,21.23
2019-01-16T06:14:28.021Z,20.27
2019-01-16T06:17:17.437Z,24.10
2019-01-16T06:20:18.180Z,26.10
2019-01-16T06:23:03.654Z,23.43
2019-01-16T06:25:51.034Z,26.70
2019-01-16T06:28:38.232Z,19.77
2019-01-16T06:31:25.534Z,21.97
2019-01-16T06:34:15.729Z,25.93
2019-01-16T06:36:56.041Z,22.10
2019-01-16T06:39:54.869Z,22.23
2019-01-16T06:42:49.910Z,24.23
2019-01-16T06:45:37.514Z,25.47
2019-01-16T06:48:22.330Z,26.40
2019-01-16T06:51:11.230Z,25.03
2019-01-16T06:54:05.984Z,25.63
2019-01-16T06:56:52.505Z,28.30
2019-01-16T06:59:45.605Z,19.80
2019-01-16T07:02:52.249Z,20.27
2019-01-16T07:05:39.590Z,31.27
2019-01-16T07:08:43.510Z,24.83
2019-01-16T07:11:33.714Z,24.97
2019-01-16T07:14:25.100Z,17.87
2019-01-16T07:17:08.489Z,18.80
2019-01-16T07:20:09.763Z,20.30
2019-01-16T07:22:58.894Z,15.87
2019-01-16T07:25:46.352Z,19.37
2019-01-16T07:28:46.989Z,19.40
2019-01-16T07:31:42.914Z,20.50
2019-01-16T07:34:34.502Z,17.63
2019-01-16T07:37:23.214Z,17.40
2019-01-16T07:40:15.023Z,10.37
2019-01-16T07:43:09.943Z,15.53
2019-01-16T07:45:50.963Z,11.17
2019-01-16T07:48:30.376Z,17.37
2019-01-16T07:51:23.761Z,18.23
2019-01-16T07:54:15.425Z,14.83
2019-01-16T07:57:02.734Z,15.60
2019-01-16T07:59:54.171Z,17.40
2019-01-16T08:02:45.044Z,14.77
2019-01-16T08:05:29.012Z,15.43
2019-01-16T08:08:11.602Z,15.87
2019-01-16T08:10:57.849Z,17.60
2019-01-16T08:16:23.982Z,15.80
2019-01-16T08:19:11.432Z,16.37
2019-01-16T08:22:03.005Z,22.03
2019-01-16T08:24:45.970Z,17.30
2019-01-16T08:27:29.736Z,17.30
2019-01-16T08:30:17.512Z,16.20
2019-01-16T08:33:10.882Z,22.03
2019-01-16T08:36:01.817Z,20.10
2019-01-16T08:39:04.739Z,17.77
2019-01-16T08:42:01.656Z,18.53
2019-01-16T08:44:54.750Z,17.17
2019-01-16T08:47:45.660Z,17.03
2019-01-16T08:50:35.916Z,16.43
2019-01-16T08:54:51.917Z,17.50
2019-01-16T08:57:27.469Z,21.80
2019-01-16T09:00:28.781Z,21.00
2019-01-16T09:03:33.059Z,19.37
2019-01-16T09:06:27.863Z,22.53
2019-01-16T09:09:16.930Z,17.43
2019-01-16T09:12:06.078Z,19.00
2019-01-16T09:14:54.019Z,19.07
2019-01-16T09:17:49.038Z,18.03
2019-01-16T09:20:53.392Z,18.27
2019-01-16T09:23:46.124Z,19.57
2019-01-16T09:26:41.405Z,16.80
2019-01-16T09:29:24.200Z,18.80
2019-01-16T09:32:11.888Z,15.13
2019-01-16T09:35:20.697Z,9.10
2019-01-16T09:38:14.939Z,12.23
2019-01-16T09:41:05.471Z,16.30
2019-01-16T09:43:52.671Z,10.80
2019-01-16T09:46:54.010Z,9.87
2019-01-16T09:49:41.576Z,8.53
2019-01-16T09:52:32.943Z,11.73
2019-01-16T09:55:22.281Z,12.50
2019-01-16T09:58:15.722Z,8.63
2019-01-16T10:01:12.690Z,11.40
2019-01-16T10:04:13.824Z,8.37
2019-01-16T10:07:02.898Z,12.53
2019-01-16T10:09:51.089Z,10.80
2019-01-16T10:12:38.866Z,8.57
2019-01-16T10:15:31.805Z,11.73
2019-01-16T10:18:26.794Z,11.13
2019-01-16T10:21:07.462Z,8.20
2019-01-16T10:24:04.078Z,13.10
2019-01-16T10:26:51.718Z,17.30
2019-01-16T10:29:46.485Z,12.63
2019-01-16T10:32:34.634Z,15.33
2019-01-16T10:35:36.181Z,21.57
2019-01-16T10:38:28.273Z,19.57
2019-01-16T10:41:32.748Z,20.27
2019-01-16T10:44:21.773Z,20.37
2019-01-16T10:47:16.893Z,21.67
2019-01-16T10:50:17.801Z,24.20
2019-01-16T10:53:09.513Z,26.23
2019-01-16T10:55:57.105Z,22.93
2019-01-16T10:59:04.286Z,20.17
2019-01-16T11:01:53.538Z,25.20
2019-01-16T11:04:35.631Z,21.30
2019-01-16T11:07:14.044Z,25.03
2019-01-16T11:10:15.122Z,22.97
2019-01-16T11:13:02.643Z,22.63
2019-01-16T11:16:00.757Z,22.83
2019-01-16T11:18:48.483Z,21.63
2019-01-16T11:21:55.474Z,18.90
2019-01-16T11:24:49.993Z,20.07
2019-01-16T11:27:41.704Z,21.20
2019-01-16T11:30:30.607Z,19.07
2019-01-16T11:33:18.130Z,20.97
2019-01-16T11:36:08.730Z,19.57
2019-01-16T11:39:00.946Z,16.53
2019-01-16T11:42:08.328Z,21.70
2019-01-16T11:44:55.750Z,18.47
2019-01-16T11:48:02.929Z,21.97
2019-01-16T11:50:51.495Z,27.17
2019-01-16T11:53:39.626Z,25.20
2019-01-16T11:56:25.574Z,19.93
2019-01-16T11:59:33.124Z,22.07
2019-01-16T12:02:22.106Z,21.53
2019-01-16T12:05:13.716Z,17.73
2019-01-16T12:08:03.477Z,24.37
2019-01-16T12:10:50.965Z,24.27
2019-01-16T12:13:48.939Z,24.70
2019-01-16T12:16:50.039Z,28.83
2019-01-16T12:19:54.054Z,24.77
2019-01-16T12:22:43.403Z,24.57
2019-01-16T12:25:42.300Z,23.17
2019-01-16T12:28:32.720Z,23.43
2019-01-16T12:31:28.136Z,28.63
2019-01-16T12:34:15.845Z,23.67
2019-01-16T12:37:03.554Z,28.63
2019-01-16T12:39:43.442Z,27.10
2019-01-16T12:42:25.758Z,21.13
2019-01-16T12:45:13.796Z,23.97
2019-01-16T12:48:17.938Z,23.30
2019-01-16T12:51:10.050Z,22.50
2019-01-16T12:53:59.140Z,24.70
2019-01-16T12:56:48.291Z,23.33
2019-01-16T12:59:54.996Z,23.30
2019-01-16T13:03:08.269Z,22.43
2019-01-16T13:06:01.998Z,24.67
2019-01-16T13:08:55.052Z,26.10
2019-01-16T13:11:44.207Z,23.50
2019-01-16T13:14:51.804Z,24.70
2019-01-16T13:17:46.725Z,27.03
2019-01-16T13:20:46.278Z,25.03
2019-01-16T13:23:48.919Z,26.73
2019-01-16T13:26:36.719Z,21.97
2019-01-16T13:29:45.149Z,26.67
2019-01-16T13:32:55.660Z,21.13
2019-01-16T13:35:29.419Z,21.67
2019-01-16T13:38:29.630Z,21.03
2019-01-16T13:41:17.752Z,20.30
2019-01-16T13:44:22.947Z,23.17
2019-01-16T13:47:45.008Z,23.60
2019-01-16T13:50:49.283Z,21.80
2019-01-16T13:53:36.931Z,24.57
2019-01-16T13:56:22.711Z,23.13
2019-01-16T13:59:11.636Z,22.77
2019-01-16T14:01:59.428Z,20.77
2019-01-16T14:04:48.242Z,24.23
2019-01-16T14:07:36.056Z,24.23
2019-01-16T14:10:28.450Z,25.30
2019-01-16T14:13:26.132Z,23.80
2019-01-16T14:16:04.201Z,24.60
2019-01-16T14:18:48.787Z,25.23
2019-01-16T14:21:52.996Z,24.93
2019-01-16T14:24:39.340Z,28.00
2019-01-16T14:27:40.078Z,22.47
2019-01-16T14:30:41.643Z,25.40
2019-01-16T14:33:31.491Z,23.47
2019-01-16T14:36:29.703Z,25.97
2019-01-16T14:39:21.506Z,25.73
2019-01-16T14:42:08.817Z,24.73
2019-01-16T14:44:56.153Z,23.17
2019-01-16T14:47:47.918Z,22.50
2019-01-16T14:50:36.566Z,30.10
2019-01-16T14:53:40.918Z,28.10
2019-01-16T14:56:38.499Z,28.20
2019-01-16T14:59:42.132Z,20.70
2019-01-16T15:02:37.902Z,24.60
2019-01-16T15:05:22.131Z,27.47
2019-01-16T15:08:11.174Z,25.43
2019-01-16T15:11:18.127Z,26.10
2019-01-16T15:14:06.744Z,24.07
2019-01-16T15:16:54.144Z,27.00
2019-01-16T15:19:45.719Z,28.17
2019-01-16T15:22:40.242Z,27.60
2019-01-16T15:25:17.739Z,27.20
2019-01-16T15:28:15.631Z,26.90
2019-01-16T15:31:03.987Z,25.20
2019-01-16T15:33:52.735Z,28.47
2019-01-16T15:36:40.439Z,26.83
2019-01-16T15:39:31.450Z,29.20
2019-01-16T15:42:22.867Z,24.50
2019-01-16T15:45:16.886Z,24.93
2019-01-16T15:48:03.046Z,25.57
2019-01-16T15:51:01.061Z,27.63
2019-01-16T15:53:46.429Z,30.93
2019-01-16T15:56:38.330Z,28.43
2019-01-16T15:59:19.722Z,30.73
2019-01-16T16:02:08.715Z,32.10
2019-01-16T16:05:12.924Z,33.93
2019-01-16T16:07:56.593Z,34.73
2019-01-16T16:10:45.250Z,32.73
2019-01-16T16:13:42.057Z,32.33
2019-01-16T16:16:34.059Z,33.30
2019-01-16T16:19:21.190Z,27.67
2019-01-16T16:22:19.204Z,30.70
2019-01-16T16:25:15.932Z,32.70
2019-01-16T16:28:06.546Z,29.93
2019-01-16T16:30:55.398Z,27.77
2019-01-16T16:33:43.303Z,26.07
2019-01-16T16:36:41.269Z,30.10
2019-01-16T16:39:35.770Z,30.70
2019-01-16T16:42:55.551Z,28.57
2019-01-16T16:45:55.084Z,29.17
2019-01-16T16:48:42.837Z,27.77
2019-01-16T16:51:44.498Z,27.87
2019-01-16T16:54:32.248Z,26.17
2019-01-16T16:57:17.875Z,29.20
2019-01-16T17:00:06.671Z,24.43
2019-01-16T17:03:06.142Z,26.13
2019-01-16T17:05:58.765Z,24.77
2019-01-16T17:08:46.894Z,28.37
2019-01-16T17:11:42.273Z,23.93
2019-01-16T17:14:27.159Z,27.70
2019-01-16T17:17:19.470Z,24.20
2019-01-16T17:20:17.090Z,23.50
2019-01-16T17:23:06.919Z,26.80
2019-01-16T17:25:56.483Z,26.50
2019-01-16T17:28:44.593Z,26.50
2019-01-16T17:31:32.341Z,23.50
2019-01-16T17:34:24.503Z,25.27
2019-01-16T17:37:21.847Z,25.37
2019-01-16T17:40:01.630Z,25.17
2019-01-16T17:42:49.419Z,24.03
2019-01-16T17:45:37.087Z,27.03
2019-01-16T17:48:33.618Z,24.87
2019-01-16T17:51:21.505Z,25.23
2019-01-16T17:54:09.058Z,25.13
2019-01-16T17:56:56.412Z,24.77
2019-01-16T17:59:55.734Z,21.30
2019-01-16T18:02:36.917Z,25.40
2019-01-16T18:05:22.315Z,23.23
2019-01-16T18:08:17.287Z,21.33
2019-01-16T18:11:02.731Z,21.13
2019-01-16T18:13:54.484Z,25.57
2019-01-16T18:16:52.337Z,23.27
2019-01-16T18:19:40.068Z,28.60
2019-01-16T18:22:29.835Z,29.63
2019-01-16T18:25:13.364Z,25.13
2019-01-16T18:28:02.124Z,22.53
2019-01-16T18:31:09.038Z,24.33
2019-01-16T18:33:53.984Z,23.53
2019-01-16T18:36:58.031Z,22.43
2019-01-16T18:39:39.660Z,22.77
2019-01-16T18:42:30.391Z,22.60
2019-01-16T18:45:23.463Z,24.40
2019-01-16T18:48:12.311Z,22.27
2019-01-16T18:51:12.839Z,24.30
2019-01-16T18:54:17.297Z,20.20
2019-01-16T18:57:18.367Z,20.60
2019-01-16T19:00:22.418Z,21.40
2019-01-16T19:03:17.329Z,17.63
2019-01-16T19:06:09.329Z,21.77
2019-01-16T19:08:57.100Z,25.47
2019-01-16T19:11:36.508Z,20.67
2019-01-16T19:14:35.519Z,21.97
2019-01-16T19:17:27.046Z,22.67
2019-01-16T19:20:20.884Z,21.90
2019-01-16T19:23:18.187Z,20.10
2019-01-16T19:26:23.624Z,18.80
2019-01-16T19:29:24.265Z,20.70
2019-01-16T19:32:13.207Z,19.53
2019-01-16T19:35:34.206Z,20.90
2019-01-16T19:38:23.939Z,17.00
2019-01-16T19:41:12.020Z,19.57
2019-01-16T19:44:03.460Z,17.47
2019-01-16T19:46:59.640Z,19.47
2019-01-16T19:49:43.916Z,19.20
2019-01-16T19:52:41.981Z,17.67
2019-01-16T19:55:48.509Z,15.40
2019-01-16T19:58:29.470Z,17.33
2019-01-16T20:01:17.297Z,15.07
2019-01-16T20:04:28.188Z,17.77
2019-01-16T20:07:10.300Z,16.20
2019-01-16T20:09:53.413Z,15.57
2019-01-16T20:12:35.722Z,18.47
2019-01-16T20:15:19.751Z,15.27
2019-01-16T20:18:23.657Z,18.13
2019-01-16T20:21:15.272Z,17.10
2019-01-16T20:24:12.549Z,16.50
2019-01-16T20:27:07.486Z,15.63
2019-01-16T20:30:02.137Z,16.60
2019-01-16T20:32:47.708Z,15.97
2019-01-16T20:35:35.358Z,17.07
2019-01-16T20:38:24.239Z,13.50
2019-01-16T20:41:36.053Z,19.00
2019-01-16T20:44:31.154Z,16.77
2019-01-16T20:47:20.659Z,16.07
2019-01-16T20:50:25.026Z,17.07
2019-01-16T20:53:17.452Z,17.03
2019-01-16T20:56:03.476Z,14.87
2019-01-16T20:58:58.385Z,15.57
2019-01-16T21:01:45.650Z,15.40
2019-01-16T21:04:37.248Z,14.70
2019-01-16T21:07:28.688Z,18.17
2019-01-16T21:10:22.739Z,16.23
2019-01-16T21:13:10.010Z,14.83
2019-01-16T21:15:52.058Z,17.63
2019-01-16T21:18:43.953Z,17.63
2019-01-16T21:21:31.400Z,13.63
2019-01-16T21:24:10.100Z,14.67
2019-01-16T21:26:58.059Z,16.00
2019-01-16T21:29:49.579Z,17.33
2019-01-16T21:32:37.082Z,16.47
2019-01-16T21:35:35.155Z,14.10
2019-01-16T21:38:29.627Z,14.67
2019-01-16T21:41:13.364Z,14.50
2019-01-16T21:44:01.631Z,16.70
2019-01-16T21:47:07.298Z,16.03
2019-01-16T21:49:49.874Z,14.20
2019-01-16T21:52:51.098Z,14.10
2019-01-16T21:55:32.555Z,21.67
2019-01-16T21:58:21.645Z,26.93
2019-01-16T22:01:08.107Z,25.33
2019-01-16T22:03:45.863Z,22.77
2019-01-16T22:06:37.721Z,21.77
2019-01-16T22:09:37.098Z,15.37
2019-01-16T22:12:43.966Z,14.43
2019-01-16T22:15:33.734Z,15.67
2019-01-16T22:18:21.329Z,16.87
2019-01-16T22:21:35.019Z,16.90
2019-01-16T22:24:49.200Z,18.80
2019-01-16T22:27:36.303Z,15.73
2019-01-16T22:30:42.797Z,14.77
2019-01-16T22:33:31.486Z,19.53
2019-01-16T22:36:29.133Z,16.33
2019-01-16T22:39:23.881Z,14.13
2019-01-16T22:42:02.388Z,16.63
2019-01-16T22:44:57.172Z,15.80
2019-01-16T22:47:51.893Z,15.83
2019-01-16T22:50:40.637Z,18.27
2019-01-16T22:53:43.432Z,16.90
2019-01-16T22:56:30.869Z,15.77
2019-01-16T22:59:12.926Z,13.03
2019-01-16T23:02:00.647Z,16.67
2019-01-16T23:05:04.503Z,15.23
2019-01-16T23:08:02.204Z,12.33
2019-01-16T23:10:56.724Z,14.33
2019-01-16T23:13:47.494Z,16.70
2019-01-16T23:16:42.100Z,13.83
2019-01-16T23:19:29.451Z,14.67
2019-01-16T23:22:18.119Z,11.87
2019-01-16T23:25:04.412Z,11.77
2019-01-16T23:27:47.032Z,17.27
2019-01-16T23:30:31.098Z,13.03
2019-01-16T23:33:24.184Z,14.03
2019-01-16T23:36:28.301Z,15.70
2019-01-16T23:39:25.692Z,13.13
2019-01-16T23:42:24.764Z,15.03
2019-01-16T23:45:31.572Z,16.17
2019-01-16T23:48:38.461Z,15.63
2019-01-16T23:51:30.041Z,14.40
2019-01-16T23:54:24.666Z,17.50
2019-01-16T23:57:22.218Z,11.80
